sensor_id;sensor_type;location;lat;lon;timestamp;temperature;humidity
57106;DHT22;62662;56.788;23.942;2022-12-10T00:01:35;-10.90;99.90
57106;DHT22;62662;56.788;23.942;2022-12-10T00:04:02;-10.90;99.90
57106;DHT22;62662;56.788;23.942;2022-12-10T00:06:32;-10.90;99.90
57106;DHT22;62662;56.788;23.942;2022-12-10T00:09:00;-10.90;99.90
57106;DHT22;62662;56.788;23.942;2022-12-10T00:11:27;-10.80;99.90
57106;DHT22;62662;56.788;23.942;2022-12-10T00:13:55;-10.90;99.90
57106;DHT22;62662;56.788;23.942;2022-12-10T00:16:23;-11.10;99.90
57106;DHT22;62662;56.788;23.942;2022-12-10T00:18:52;-11.00;99.90
57106;DHT22;62662;56.788;23.942;2022-12-10T00:21:26;-10.80;99.90
57106;DHT22;62662;56.788;23.942;2022-12-10T00:23:53;-10.80;99.90
57106;DHT22;62662;56.788;23.942;2022-12-10T00:26:26;-10.80;99.90
57106;DHT22;62662;56.788;23.942;2022-12-10T00:28:53;-10.90;99.90
57106;DHT22;62662;56.788;23.942;2022-12-10T00:31:24;-10.90;99.90
57106;DHT22;62662;56.788;23.942;2022-12-10T00:33:54;-10.90;99.90
57106;DHT22;62662;56.788;23.942;2022-12-10T00:36:24;-10.90;99.90
57106;DHT22;62662;56.788;23.942;2022-12-10T00:38:52;-10.80;99.90
57106;DHT22;62662;56.788;23.942;2022-12-10T00:41:22;-10.90;99.90
57106;DHT22;62662;56.788;23.942;2022-12-10T00:43:50;-10.90;99.90
57106;DHT22;62662;56.788;23.942;2022-12-10T00:46:18;-11.00;99.90
57106;DHT22;62662;56.788;23.942;2022-12-10T00:48:46;-11.00;99.90
57106;DHT22;62662;56.788;23.942;2022-12-10T00:51:24;-11.00;99.90
57106;DHT22;62662;56.788;23.942;2022-12-10T00:53:53;-10.90;99.90
57106;DHT22;62662;56.788;23.942;2022-12-10T00:56:29;-10.90;99.90
57106;DHT22;62662;56.788;23.942;2022-12-10T00:58:57;-10.90;99.90
57106;DHT22;62662;56.788;23.942;2022-12-10T01:01:39;-10.90;99.90
57106;DHT22;62662;56.788;23.942;2022-12-10T01:04:12;-11.00;99.90
57106;DHT22;62662;56.788;23.942;2022-12-10T01:06:52;-11.00;99.90
57106;DHT22;62662;56.788;23.942;2022-12-10T01:09:24;-10.90;99.90
57106;DHT22;62662;56.788;23.942;2022-12-10T01:11:52;-11.00;99.90
57106;DHT22;62662;56.788;23.942;2022-12-10T01:14:25;-11.00;99.90
57106;DHT22;62662;56.788;23.942;2022-12-10T01:16:58;-11.00;99.90
57106;DHT22;62662;56.788;23.942;2022-12-10T01:19:26;-11.00;99.90
57106;DHT22;62662;56.788;23.942;2022-12-10T01:21:54;-11.00;99.90
57106;DHT22;62662;56.788;23.942;2022-12-10T01:24:23;-11.20;99.90
57106;DHT22;62662;56.788;23.942;2022-12-10T01:26:51;-11.20;99.90
57106;DHT22;62662;56.788;23.942;2022-12-10T01:29:18;-11.30;99.90
57106;DHT22;62662;56.788;23.942;2022-12-10T01:31:45;-11.40;99.90
57106;DHT22;62662;56.788;23.942;2022-12-10T01:34:14;-11.50;99.90
57106;DHT22;62662;56.788;23.942;2022-12-10T01:36:44;-11.60;99.90
57106;DHT22;62662;56.788;23.942;2022-12-10T01:39:14;-11.50;99.90
57106;DHT22;62662;56.788;23.942;2022-12-10T01:41:48;-11.50;99.90
57106;DHT22;62662;56.788;23.942;2022-12-10T01:46:45;-11.70;99.90
57106;DHT22;62662;56.788;23.942;2022-12-10T01:49:15;-11.80;99.90
57106;DHT22;62662;56.788;23.942;2022-12-10T01:51:43;-11.90;99.90
57106;DHT22;62662;56.788;23.942;2022-12-10T01:54:16;-12.00;99.90
57106;DHT22;62662;56.788;23.942;2022-12-10T01:56:45;-12.10;99.90
57106;DHT22;62662;56.788;23.942;2022-12-10T01:59:14;-12.00;99.90
57106;DHT22;62662;56.788;23.942;2022-12-10T02:12:39;-12.00;99.90
57106;DHT22;62662;56.788;23.942;2022-12-10T02:15:17;-12.10;99.90
57106;DHT22;62662;56.788;23.942;2022-12-10T02:17:48;-12.10;99.90
57106;DHT22;62662;56.788;23.942;2022-12-10T02:23:00;-12.20;99.90
57106;DHT22;62662;56.788;23.942;2022-12-10T02:28:36;-12.50;99.90
57106;DHT22;62662;56.788;23.942;2022-12-10T02:31:04;-12.50;99.90
57106;DHT22;62662;56.788;23.942;2022-12-10T02:33:35;-12.60;99.90
57106;DHT22;62662;56.788;23.942;2022-12-10T02:36:05;-12.50;99.90
57106;DHT22;62662;56.788;23.942;2022-12-10T02:38:36;-12.60;99.90
57106;DHT22;62662;56.788;23.942;2022-12-10T02:41:14;-12.60;99.90
57106;DHT22;62662;56.788;23.942;2022-12-10T02:43:45;-12.50;99.90
57106;DHT22;62662;56.788;23.942;2022-12-10T02:46:13;-12.50;99.90
57106;DHT22;62662;56.788;23.942;2022-12-10T02:48:41;-12.40;99.90
57106;DHT22;62662;56.788;23.942;2022-12-10T02:51:08;-12.30;99.90
57106;DHT22;62662;56.788;23.942;2022-12-10T02:53:45;-12.40;99.90
57106;DHT22;62662;56.788;23.942;2022-12-10T02:56:33;-12.50;99.90
57106;DHT22;62662;56.788;23.942;2022-12-10T03:01:43;-12.40;99.90
57106;DHT22;62662;56.788;23.942;2022-12-10T03:04:25;-12.60;99.90
57106;DHT22;62662;56.788;23.942;2022-12-10T03:07:02;-12.50;99.90
57106;DHT22;62662;56.788;23.942;2022-12-10T03:09:42;-12.40;99.90
57106;DHT22;62662;56.788;23.942;2022-12-10T03:12:30;-12.40;99.90
57106;DHT22;62662;56.788;23.942;2022-12-10T03:15:00;-12.60;99.90
57106;DHT22;62662;56.788;23.942;2022-12-10T03:17:29;-12.70;99.90
57106;DHT22;62662;56.788;23.942;2022-12-10T03:19:58;-12.70;99.90
57106;DHT22;62662;56.788;23.942;2022-12-10T03:22:27;-12.70;99.90
57106;DHT22;62662;56.788;23.942;2022-12-10T03:24:55;-12.70;99.90
57106;DHT22;62662;56.788;23.942;2022-12-10T03:27:23;-12.70;99.90
57106;DHT22;62662;56.788;23.942;2022-12-10T03:29:53;-12.80;99.90
57106;DHT22;62662;56.788;23.942;2022-12-10T03:32:24;-12.80;99.90
57106;DHT22;62662;56.788;23.942;2022-12-10T03:34:54;-12.80;99.90
57106;DHT22;62662;56.788;23.942;2022-12-10T03:37:24;-12.90;99.90
57106;DHT22;62662;56.788;23.942;2022-12-10T03:39:52;-12.90;99.90
57106;DHT22;62662;56.788;23.942;2022-12-10T03:42:19;-12.90;99.90
57106;DHT22;62662;56.788;23.942;2022-12-10T03:44:50;-13.00;99.90
57106;DHT22;62662;56.788;23.942;2022-12-10T03:47:17;-12.90;99.90
57106;DHT22;62662;56.788;23.942;2022-12-10T03:49:44;-12.90;99.90
57106;DHT22;62662;56.788;23.942;2022-12-10T03:52:11;-12.70;99.90
57106;DHT22;62662;56.788;23.942;2022-12-10T03:54:39;-12.60;99.90
57106;DHT22;62662;56.788;23.942;2022-12-10T03:57:06;-12.70;99.90
57106;DHT22;62662;56.788;23.942;2022-12-10T03:59:33;-12.70;99.90
57106;DHT22;62662;56.788;23.942;2022-12-10T04:01:59;-12.70;99.90
57106;DHT22;62662;56.788;23.942;2022-12-10T04:04:27;-12.80;99.90
57106;DHT22;62662;56.788;23.942;2022-12-10T04:06:54;-12.90;99.90
57106;DHT22;62662;56.788;23.942;2022-12-10T04:09:21;-12.80;99.90
57106;DHT22;62662;56.788;23.942;2022-12-10T04:11:48;-12.80;99.90
57106;DHT22;62662;56.788;23.942;2022-12-10T04:14:15;-12.80;99.90
57106;DHT22;62662;56.788;23.942;2022-12-10T04:17:00;-12.80;99.90
57106;DHT22;62662;56.788;23.942;2022-12-10T04:19:27;-12.80;99.90
57106;DHT22;62662;56.788;23.942;2022-12-10T04:21:54;-12.90;99.90
57106;DHT22;62662;56.788;23.942;2022-12-10T04:24:40;-13.10;99.90
57106;DHT22;62662;56.788;23.942;2022-12-10T04:27:31;-13.30;99.90
57106;DHT22;62662;56.788;23.942;2022-12-10T04:30:00;-13.40;99.90
57106;DHT22;62662;56.788;23.942;2022-12-10T04:32:28;-13.40;99.90
57106;DHT22;62662;56.788;23.942;2022-12-10T04:34:56;-13.50;99.90
57106;DHT22;62662;56.788;23.942;2022-12-10T04:37:24;-13.50;99.90
57106;DHT22;62662;56.788;23.942;2022-12-10T04:39:51;-13.50;99.90
57106;DHT22;62662;56.788;23.942;2022-12-10T04:42:20;-13.30;99.90
57106;DHT22;62662;56.788;23.942;2022-12-10T04:44:48;-13.20;99.90
57106;DHT22;62662;56.788;23.942;2022-12-10T04:47:16;-13.10;99.90
57106;DHT22;62662;56.788;23.942;2022-12-10T04:49:43;-13.20;99.90
57106;DHT22;62662;56.788;23.942;2022-12-10T04:52:13;-13.00;99.90
57106;DHT22;62662;56.788;23.942;2022-12-10T04:54:41;-12.90;99.90
57106;DHT22;62662;56.788;23.942;2022-12-10T04:57:09;-12.90;99.90
57106;DHT22;62662;56.788;23.942;2022-12-10T04:59:36;-12.80;99.90
57106;DHT22;62662;56.788;23.942;2022-12-10T05:02:05;-12.80;99.90
57106;DHT22;62662;56.788;23.942;2022-12-10T05:04:33;-12.80;99.90
57106;DHT22;62662;56.788;23.942;2022-12-10T05:07:00;-12.80;99.90
57106;DHT22;62662;56.788;23.942;2022-12-10T05:09:28;-12.70;99.90
57106;DHT22;62662;56.788;23.942;2022-12-10T05:11:56;-12.70;99.90
57106;DHT22;62662;56.788;23.942;2022-12-10T05:14:25;-12.60;99.90
57106;DHT22;62662;56.788;23.942;2022-12-10T05:16:52;-12.50;99.90
57106;DHT22;62662;56.788;23.942;2022-12-10T05:19:20;-12.50;99.90
57106;DHT22;62662;56.788;23.942;2022-12-10T05:21:49;-12.50;99.90
57106;DHT22;62662;56.788;23.942;2022-12-10T05:24:36;-12.40;99.90
57106;DHT22;62662;56.788;23.942;2022-12-10T05:27:03;-12.60;99.90
57106;DHT22;62662;56.788;23.942;2022-12-10T05:29:32;-12.70;99.90
57106;DHT22;62662;56.788;23.942;2022-12-10T05:31:59;-12.70;99.90
57106;DHT22;62662;56.788;23.942;2022-12-10T05:34:26;-12.70;99.90
57106;DHT22;62662;56.788;23.942;2022-12-10T05:36:54;-12.70;99.90
57106;DHT22;62662;56.788;23.942;2022-12-10T05:39:22;-12.70;99.90
57106;DHT22;62662;56.788;23.942;2022-12-10T05:41:50;-12.80;99.90
57106;DHT22;62662;56.788;23.942;2022-12-10T05:44:17;-12.80;99.90
57106;DHT22;62662;56.788;23.942;2022-12-10T05:46:44;-12.90;99.90
57106;DHT22;62662;56.788;23.942;2022-12-10T05:49:11;-12.80;99.90
57106;DHT22;62662;56.788;23.942;2022-12-10T05:51:39;-12.70;99.90
57106;DHT22;62662;56.788;23.942;2022-12-10T05:54:07;-12.70;99.90
57106;DHT22;62662;56.788;23.942;2022-12-10T05:56:36;-12.70;99.90
57106;DHT22;62662;56.788;23.942;2022-12-10T05:59:04;-12.70;99.90
57106;DHT22;62662;56.788;23.942;2022-12-10T06:01:34;-12.70;99.90
57106;DHT22;62662;56.788;23.942;2022-12-10T06:04:04;-12.70;99.90
57106;DHT22;62662;56.788;23.942;2022-12-10T06:06:34;-12.70;99.90
57106;DHT22;62662;56.788;23.942;2022-12-10T06:09:04;-12.60;99.90
57106;DHT22;62662;56.788;23.942;2022-12-10T06:11:31;-12.50;99.90
57106;DHT22;62662;56.788;23.942;2022-12-10T06:13:59;-12.50;99.90
57106;DHT22;62662;56.788;23.942;2022-12-10T06:16:27;-12.40;99.90
57106;DHT22;62662;56.788;23.942;2022-12-10T06:18:55;-12.40;99.90
57106;DHT22;62662;56.788;23.942;2022-12-10T06:21:23;-12.40;99.90
57106;DHT22;62662;56.788;23.942;2022-12-10T06:23:51;-12.30;99.90
57106;DHT22;62662;56.788;23.942;2022-12-10T06:26:22;-12.30;99.90
57106;DHT22;62662;56.788;23.942;2022-12-10T06:28:50;-12.30;99.90
57106;DHT22;62662;56.788;23.942;2022-12-10T06:31:19;-12.20;99.90
57106;DHT22;62662;56.788;23.942;2022-12-10T06:33:49;-12.20;99.90
57106;DHT22;62662;56.788;23.942;2022-12-10T06:36:17;-12.20;99.90
57106;DHT22;62662;56.788;23.942;2022-12-10T06:38:45;-12.10;99.90
57106;DHT22;62662;56.788;23.942;2022-12-10T06:41:16;-12.10;99.90
57106;DHT22;62662;56.788;23.942;2022-12-10T06:43:44;-12.00;99.90
57106;DHT22;62662;56.788;23.942;2022-12-10T06:46:15;-12.00;99.90
57106;DHT22;62662;56.788;23.942;2022-12-10T06:48:45;-11.90;99.90
57106;DHT22;62662;56.788;23.942;2022-12-10T06:51:13;-11.70;99.90
57106;DHT22;62662;56.788;23.942;2022-12-10T06:53:41;-11.60;99.90
57106;DHT22;62662;56.788;23.942;2022-12-10T06:56:16;-11.60;99.90
57106;DHT22;62662;56.788;23.942;2022-12-10T06:58:43;-11.60;99.90
57106;DHT22;62662;56.788;23.942;2022-12-10T07:01:23;-11.50;99.90
57106;DHT22;62662;56.788;23.942;2022-12-10T07:03:55;-11.40;99.90
57106;DHT22;62662;56.788;23.942;2022-12-10T07:06:24;-11.40;99.90
57106;DHT22;62662;56.788;23.942;2022-12-10T07:08:51;-11.40;99.90
57106;DHT22;62662;56.788;23.942;2022-12-10T07:11:33;-11.30;99.90
57106;DHT22;62662;56.788;23.942;2022-12-10T07:14:02;-11.40;99.90
57106;DHT22;62662;56.788;23.942;2022-12-10T07:16:33;-11.40;99.90
57106;DHT22;62662;56.788;23.942;2022-12-10T07:19:04;-11.30;99.90
57106;DHT22;62662;56.788;23.942;2022-12-10T07:21:34;-11.10;99.90
57106;DHT22;62662;56.788;23.942;2022-12-10T07:24:05;-11.10;99.90
57106;DHT22;62662;56.788;23.942;2022-12-10T07:26:34;-11.00;99.90
57106;DHT22;62662;56.788;23.942;2022-12-10T07:29:03;-10.90;99.90
57106;DHT22;62662;56.788;23.942;2022-12-10T07:31:32;-10.80;99.90
57106;DHT22;62662;56.788;23.942;2022-12-10T07:34:00;-10.70;99.90
57106;DHT22;62662;56.788;23.942;2022-12-10T07:36:28;-10.60;99.90
57106;DHT22;62662;56.788;23.942;2022-12-10T07:38:57;-10.70;99.90
57106;DHT22;62662;56.788;23.942;2022-12-10T07:41:41;-10.60;99.90
57106;DHT22;62662;56.788;23.942;2022-12-10T07:44:11;-10.60;99.90
57106;DHT22;62662;56.788;23.942;2022-12-10T07:46:52;-10.40;99.90
57106;DHT22;62662;56.788;23.942;2022-12-10T07:49:30;-10.30;99.90
57106;DHT22;62662;56.788;23.942;2022-12-10T07:52:11;-10.20;99.90
57106;DHT22;62662;56.788;23.942;2022-12-10T07:54:39;-10.20;99.90
57106;DHT22;62662;56.788;23.942;2022-12-10T07:57:06;-10.10;99.90
57106;DHT22;62662;56.788;23.942;2022-12-10T07:59:35;-10.10;99.90
57106;DHT22;62662;56.788;23.942;2022-12-10T08:02:03;-10.10;99.90
57106;DHT22;62662;56.788;23.942;2022-12-10T08:04:34;-10.00;99.90
57106;DHT22;62662;56.788;23.942;2022-12-10T08:07:02;-10.00;99.90
57106;DHT22;62662;56.788;23.942;2022-12-10T08:09:31;-10.00;99.90
57106;DHT22;62662;56.788;23.942;2022-12-10T08:12:02;-9.90;99.90
57106;DHT22;62662;56.788;23.942;2022-12-10T08:14:29;-9.90;99.90
57106;DHT22;62662;56.788;23.942;2022-12-10T08:16:56;-9.80;99.90
57106;DHT22;62662;56.788;23.942;2022-12-10T08:19:23;-9.70;99.90
57106;DHT22;62662;56.788;23.942;2022-12-10T08:21:57;-9.70;99.90
57106;DHT22;62662;56.788;23.942;2022-12-10T08:24:26;-9.60;99.90
57106;DHT22;62662;56.788;23.942;2022-12-10T08:26:54;-9.50;99.90
57106;DHT22;62662;56.788;23.942;2022-12-10T08:29:25;-9.50;99.90
57106;DHT22;62662;56.788;23.942;2022-12-10T08:31:53;-9.60;99.90
57106;DHT22;62662;56.788;23.942;2022-12-10T08:34:21;-9.60;99.90
57106;DHT22;62662;56.788;23.942;2022-12-10T08:36:49;-9.60;99.90
57106;DHT22;62662;56.788;23.942;2022-12-10T08:39:18;-9.50;99.90
57106;DHT22;62662;56.788;23.942;2022-12-10T08:41:46;-9.40;99.90
57106;DHT22;62662;56.788;23.942;2022-12-10T08:44:14;-9.20;99.90
57106;DHT22;62662;56.788;23.942;2022-12-10T08:46:45;-9.20;99.90
57106;DHT22;62662;56.788;23.942;2022-12-10T08:49:15;-9.30;99.90
57106;DHT22;62662;56.788;23.942;2022-12-10T08:51:43;-9.20;99.90
57106;DHT22;62662;56.788;23.942;2022-12-10T08:54:10;-9.10;99.90
57106;DHT22;62662;56.788;23.942;2022-12-10T08:56:40;-9.00;99.90
57106;DHT22;62662;56.788;23.942;2022-12-10T08:59:15;-8.80;99.90
57106;DHT22;62662;56.788;23.942;2022-12-10T09:01:57;-8.70;99.90
57106;DHT22;62662;56.788;23.942;2022-12-10T09:04:36;-8.80;99.90
57106;DHT22;62662;56.788;23.942;2022-12-10T09:07:18;-8.50;99.90
57106;DHT22;62662;56.788;23.942;2022-12-10T09:09:51;-8.40;99.90
57106;DHT22;62662;56.788;23.942;2022-12-10T09:12:19;-8.40;99.90
57106;DHT22;62662;56.788;23.942;2022-12-10T09:14:47;-8.50;99.90
57106;DHT22;62662;56.788;23.942;2022-12-10T09:17:20;-8.30;99.90
57106;DHT22;62662;56.788;23.942;2022-12-10T09:19:47;-8.50;99.90
57106;DHT22;62662;56.788;23.942;2022-12-10T09:22:15;-8.50;99.90
57106;DHT22;62662;56.788;23.942;2022-12-10T09:24:43;-8.40;99.90
57106;DHT22;62662;56.788;23.942;2022-12-10T09:27:12;-8.40;99.90
57106;DHT22;62662;56.788;23.942;2022-12-10T09:29:42;-8.30;99.90
57106;DHT22;62662;56.788;23.942;2022-12-10T09:32:09;-8.40;99.90
57106;DHT22;62662;56.788;23.942;2022-12-10T09:34:41;-8.30;99.90
57106;DHT22;62662;56.788;23.942;2022-12-10T09:37:12;-8.40;99.90
57106;DHT22;62662;56.788;23.942;2022-12-10T09:39:41;-8.30;99.90
57106;DHT22;62662;56.788;23.942;2022-12-10T09:47:36;-8.30;99.90
57106;DHT22;62662;56.788;23.942;2022-12-10T09:50:16;-8.20;99.90
57106;DHT22;62662;56.788;23.942;2022-12-10T09:52:47;-8.30;99.90
57106;DHT22;62662;56.788;23.942;2022-12-10T09:55:18;-8.20;99.90
57106;DHT22;62662;56.788;23.942;2022-12-10T09:57:49;-8.10;99.90
57106;DHT22;62662;56.788;23.942;2022-12-10T10:02:55;-8.00;99.90
57106;DHT22;62662;56.788;23.942;2022-12-10T10:05:41;-8.00;99.90
57106;DHT22;62662;56.788;23.942;2022-12-10T10:08:27;-7.90;99.90
57106;DHT22;62662;56.788;23.942;2022-12-10T10:10:56;-7.70;99.90
57106;DHT22;62662;56.788;23.942;2022-12-10T10:13:41;-7.80;99.90
57106;DHT22;62662;56.788;23.942;2022-12-10T10:16:36;-7.90;99.90
57106;DHT22;62662;56.788;23.942;2022-12-10T10:19:16;-7.90;99.90
57106;DHT22;62662;56.788;23.942;2022-12-10T10:21:49;-7.80;99.90
57106;DHT22;62662;56.788;23.942;2022-12-10T10:24:22;-7.70;99.90
57106;DHT22;62662;56.788;23.942;2022-12-10T10:26:53;-7.80;99.90
57106;DHT22;62662;56.788;23.942;2022-12-10T10:29:25;-7.90;99.90
57106;DHT22;62662;56.788;23.942;2022-12-10T10:32:20;-7.80;99.90
57106;DHT22;62662;56.788;23.942;2022-12-10T10:34:55;-7.80;99.90
57106;DHT22;62662;56.788;23.942;2022-12-10T10:40:05;-7.50;99.90
57106;DHT22;62662;56.788;23.942;2022-12-10T10:42:45;-7.50;99.90
57106;DHT22;62662;56.788;23.942;2022-12-10T10:45:37;-7.50;99.90
57106;DHT22;62662;56.788;23.942;2022-12-10T10:50:48;-7.50;99.90
57106;DHT22;62662;56.788;23.942;2022-12-10T10:56:28;-7.60;99.90
57106;DHT22;62662;56.788;23.942;2022-12-10T10:59:05;-7.50;99.90
57106;DHT22;62662;56.788;23.942;2022-12-10T11:01:54;-7.30;99.90
57106;DHT22;62662;56.788;23.942;2022-12-10T11:04:44;-7.30;99.90
57106;DHT22;62662;56.788;23.942;2022-12-10T11:07:32;-7.30;99.90
57106;DHT22;62662;56.788;23.942;2022-12-10T11:10:35;-7.30;99.90
57106;DHT22;62662;56.788;23.942;2022-12-10T11:13:18;-7.30;99.90
57106;DHT22;62662;56.788;23.942;2022-12-10T11:15:55;-7.30;99.90
57106;DHT22;62662;56.788;23.942;2022-12-10T11:18:35;-7.20;99.90
57106;DHT22;62662;56.788;23.942;2022-12-10T11:23:42;-7.20;99.90
57106;DHT22;62662;56.788;23.942;2022-12-10T11:29:34;-7.00;99.90
57106;DHT22;62662;56.788;23.942;2022-12-10T11:35:11;-7.00;99.90
57106;DHT22;62662;56.788;23.942;2022-12-10T11:40:55;-7.10;99.90
57106;DHT22;62662;56.788;23.942;2022-12-10T11:57:51;-7.30;99.90
57106;DHT22;62662;56.788;23.942;2022-12-10T12:00:27;-7.10;99.90
57106;DHT22;62662;56.788;23.942;2022-12-10T12:14:46;-7.20;99.90
57106;DHT22;62662;56.788;23.942;2022-12-10T12:17:30;-7.30;99.90
57106;DHT22;62662;56.788;23.942;2022-12-10T12:20:05;-7.30;99.90
57106;DHT22;62662;56.788;23.942;2022-12-10T12:22:56;-7.30;99.90
57106;DHT22;62662;56.788;23.942;2022-12-10T12:25:40;-7.20;99.90
57106;DHT22;62662;56.788;23.942;2022-12-10T12:28:20;-7.10;99.90
57106;DHT22;62662;56.788;23.942;2022-12-10T12:30:58;-7.00;99.90
57106;DHT22;62662;56.788;23.942;2022-12-10T12:33:32;-7.10;99.90
57106;DHT22;62662;56.788;23.942;2022-12-10T12:36:20;-7.20;99.90
57106;DHT22;62662;56.788;23.942;2022-12-10T12:42:03;-7.20;99.90
57106;DHT22;62662;56.788;23.942;2022-12-10T12:47:32;-7.20;99.90
57106;DHT22;62662;56.788;23.942;2022-12-10T12:50:03;-7.30;99.90
57106;DHT22;62662;56.788;23.942;2022-12-10T12:52:50;-7.20;99.90
57106;DHT22;62662;56.788;23.942;2022-12-10T12:55:36;-7.20;99.90
57106;DHT22;62662;56.788;23.942;2022-12-10T12:58:31;-7.20;99.90
57106;DHT22;62662;56.788;23.942;2022-12-10T13:01:31;-7.20;99.90
57106;DHT22;62662;56.788;23.942;2022-12-10T13:04:08;-7.20;99.90
57106;DHT22;62662;56.788;23.942;2022-12-10T13:06:38;-7.20;99.90
57106;DHT22;62662;56.788;23.942;2022-12-10T13:12:16;-7.20;99.90
57106;DHT22;62662;56.788;23.942;2022-12-10T13:14:36;-7.20;99.90
57106;DHT22;62662;56.788;23.942;2022-12-10T13:17:38;-7.20;99.90
57106;DHT22;62662;56.788;23.942;2022-12-10T13:20:32;-7.20;99.90
57106;DHT22;62662;56.788;23.942;2022-12-10T13:48:17;-7.40;99.90
57106;DHT22;62662;56.788;23.942;2022-12-10T13:50:48;-7.40;99.90
57106;DHT22;62662;56.788;23.942;2022-12-10T13:56:29;-7.40;99.90
57106;DHT22;62662;56.788;23.942;2022-12-10T13:59:43;-7.40;99.90
57106;DHT22;62662;56.788;23.942;2022-12-10T14:07:44;-7.20;99.90
57106;DHT22;62662;56.788;23.942;2022-12-10T14:10:18;-7.20;99.90
57106;DHT22;62662;56.788;23.942;2022-12-10T14:12:46;-7.30;99.90
57106;DHT22;62662;56.788;23.942;2022-12-10T14:15:23;-7.30;99.90
57106;DHT22;62662;56.788;23.942;2022-12-10T14:18:10;-7.40;99.90
57106;DHT22;62662;56.788;23.942;2022-12-10T14:20:49;-7.40;99.90
57106;DHT22;62662;56.788;23.942;2022-12-10T14:23:30;-7.50;99.90
57106;DHT22;62662;56.788;23.942;2022-12-10T14:28:48;-7.40;99.90
57106;DHT22;62662;56.788;23.942;2022-12-10T14:31:22;-7.50;99.90
57106;DHT22;62662;56.788;23.942;2022-12-10T14:33:59;-7.50;99.90
57106;DHT22;62662;56.788;23.942;2022-12-10T14:36:39;-7.40;99.90
57106;DHT22;62662;56.788;23.942;2022-12-10T14:39:29;-7.40;99.90
57106;DHT22;62662;56.788;23.942;2022-12-10T14:42:00;-7.40;99.90
57106;DHT22;62662;56.788;23.942;2022-12-10T14:44:32;-7.40;99.90
57106;DHT22;62662;56.788;23.942;2022-12-10T14:47:15;-7.50;99.90
57106;DHT22;62662;56.788;23.942;2022-12-10T14:49:47;-7.30;99.90
57106;DHT22;62662;56.788;23.942;2022-12-10T14:52:20;-7.20;99.90
57106;DHT22;62662;56.788;23.942;2022-12-10T14:54:54;-7.30;99.90
57106;DHT22;62662;56.788;23.942;2022-12-10T14:57:30;-7.30;99.90
57106;DHT22;62662;56.788;23.942;2022-12-10T15:00:10;-7.20;99.90
57106;DHT22;62662;56.788;23.942;2022-12-10T15:02:45;-7.20;99.90
57106;DHT22;62662;56.788;23.942;2022-12-10T15:05:23;-7.20;99.90
57106;DHT22;62662;56.788;23.942;2022-12-10T15:07:58;-7.10;99.90
57106;DHT22;62662;56.788;23.942;2022-12-10T15:10:38;-7.10;99.90
57106;DHT22;62662;56.788;23.942;2022-12-10T15:13:29;-7.10;99.90
57106;DHT22;62662;56.788;23.942;2022-12-10T15:15:57;-7.10;99.90
57106;DHT22;62662;56.788;23.942;2022-12-10T15:18:37;-7.10;99.90
57106;DHT22;62662;56.788;23.942;2022-12-10T15:21:22;-7.10;99.90
57106;DHT22;62662;56.788;23.942;2022-12-10T15:24:14;-7.10;99.90
57106;DHT22;62662;56.788;23.942;2022-12-10T15:26:52;-7.00;99.90
57106;DHT22;62662;56.788;23.942;2022-12-10T15:29:34;-6.80;99.90
57106;DHT22;62662;56.788;23.942;2022-12-10T15:34:46;-6.80;99.90
57106;DHT22;62662;56.788;23.942;2022-12-10T15:37:24;-6.80;99.90
57106;DHT22;62662;56.788;23.942;2022-12-10T15:40:21;-6.90;99.90
57106;DHT22;62662;56.788;23.942;2022-12-10T15:42:50;-7.00;99.90
57106;DHT22;62662;56.788;23.942;2022-12-10T15:45:26;-6.90;99.90
57106;DHT22;62662;56.788;23.942;2022-12-10T15:47:58;-6.70;99.90
57106;DHT22;62662;56.788;23.942;2022-12-10T15:50:28;-6.80;99.90
57106;DHT22;62662;56.788;23.942;2022-12-10T15:52:56;-6.90;99.90
57106;DHT22;62662;56.788;23.942;2022-12-10T15:55:29;-6.90;99.90
57106;DHT22;62662;56.788;23.942;2022-12-10T15:57:56;-7.00;99.90
57106;DHT22;62662;56.788;23.942;2022-12-10T16:00:26;-7.00;99.90
57106;DHT22;62662;56.788;23.942;2022-12-10T16:03:00;-7.00;99.90
57106;DHT22;62662;56.788;23.942;2022-12-10T16:05:34;-6.90;99.90
57106;DHT22;62662;56.788;23.942;2022-12-10T16:08:20;-6.90;99.90
57106;DHT22;62662;56.788;23.942;2022-12-10T16:10:50;-6.90;99.90
57106;DHT22;62662;56.788;23.942;2022-12-10T16:13:32;-6.90;99.90
57106;DHT22;62662;56.788;23.942;2022-12-10T16:16:09;-6.80;99.90
57106;DHT22;62662;56.788;23.942;2022-12-10T16:18:37;-6.80;99.90
57106;DHT22;62662;56.788;23.942;2022-12-10T16:21:07;-6.80;99.90
57106;DHT22;62662;56.788;23.942;2022-12-10T16:23:36;-6.80;99.90
57106;DHT22;62662;56.788;23.942;2022-12-10T16:26:17;-6.90;99.90
57106;DHT22;62662;56.788;23.942;2022-12-10T16:28:49;-6.90;99.90
57106;DHT22;62662;56.788;23.942;2022-12-10T16:31:22;-6.70;99.90
57106;DHT22;62662;56.788;23.942;2022-12-10T16:33:51;-6.70;99.90
57106;DHT22;62662;56.788;23.942;2022-12-10T16:36:22;-6.60;99.90
57106;DHT22;62662;56.788;23.942;2022-12-10T16:39:03;-6.70;99.90
57106;DHT22;62662;56.788;23.942;2022-12-10T16:41:34;-6.70;99.90
57106;DHT22;62662;56.788;23.942;2022-12-10T16:44:04;-6.70;99.90
57106;DHT22;62662;56.788;23.942;2022-12-10T16:46:35;-6.70;99.90
57106;DHT22;62662;56.788;23.942;2022-12-10T16:51:53;-6.70;99.90
57106;DHT22;62662;56.788;23.942;2022-12-10T16:54:29;-6.70;99.90
57106;DHT22;62662;56.788;23.942;2022-12-10T16:56:57;-6.60;99.90
57106;DHT22;62662;56.788;23.942;2022-12-10T16:59:27;-6.60;99.90
57106;DHT22;62662;56.788;23.942;2022-12-10T17:01:59;-6.70;99.90
57106;DHT22;62662;56.788;23.942;2022-12-10T17:04:32;-6.60;99.90
57106;DHT22;62662;56.788;23.942;2022-12-10T17:07:05;-6.50;99.90
57106;DHT22;62662;56.788;23.942;2022-12-10T17:09:40;-6.50;99.90
57106;DHT22;62662;56.788;23.942;2022-12-10T17:12:16;-6.50;99.90
57106;DHT22;62662;56.788;23.942;2022-12-10T17:14:48;-6.60;99.90
57106;DHT22;62662;56.788;23.942;2022-12-10T17:17:18;-6.60;99.90
57106;DHT22;62662;56.788;23.942;2022-12-10T17:19:58;-6.50;99.90
57106;DHT22;62662;56.788;23.942;2022-12-10T17:22:30;-6.60;99.90
57106;DHT22;62662;56.788;23.942;2022-12-10T17:25:00;-6.60;99.90
57106;DHT22;62662;56.788;23.942;2022-12-10T17:27:32;-6.50;99.90
57106;DHT22;62662;56.788;23.942;2022-12-10T17:30:06;-6.40;99.90
57106;DHT22;62662;56.788;23.942;2022-12-10T17:32:40;-6.40;99.90
57106;DHT22;62662;56.788;23.942;2022-12-10T17:35:08;-6.40;99.90
57106;DHT22;62662;56.788;23.942;2022-12-10T17:37:38;-6.40;99.90
57106;DHT22;62662;56.788;23.942;2022-12-10T17:40:17;-6.40;99.90
57106;DHT22;62662;56.788;23.942;2022-12-10T17:42:50;-6.40;99.90
57106;DHT22;62662;56.788;23.942;2022-12-10T17:45:20;-6.50;99.90
57106;DHT22;62662;56.788;23.942;2022-12-10T17:47:49;-6.40;99.90
57106;DHT22;62662;56.788;23.942;2022-12-10T17:50:30;-6.50;99.90